Meteo Giornale » Osservazioni meteo Stati Uniti (USA) » Hanford
ore: 13:53 - Osservazioni Meteo Hanford
Lat. 36° 19' N Lon. 119° 37' W Alt. 74 metri s.l.m.
32 °C
Sereno
Temp. 24 Ore
14 °C
34 °C
Nord
5.5 Km/h
Dew point 7 °C
Umidità 21 %
Visibilità 10 Km
Il sole sorge alle ore 06:29
Il sole tramonta alle ore 19:27
| Data e Ora | Cielo e Fenomeni | T °C | DP °C | Um. % | Pres. hPa | Vis. km | Vento km/h | |
|---|---|---|---|---|---|---|---|---|
| Oggi h: 13:53 | Sereno | 32 | 7 | 21 | 1011 | 10 | N 5.5 | |
| Oggi h: 12:53 | Sereno | 31 | 7 | 22 | 1011 | 10 | S/SO 11.1 | |
| Oggi h: 11:53 | Sereno | 28 | 9 | 30 | 1012 | 11 | N 7.4 | |
| Oggi h: 10:53 | Sereno | 26 | 10 | 36 | 1012 | 10 | N 0 | |
| Oggi h: 09:53 | Sereno | 23 | 11 | 46 | 1012 | 10 | N 0 | |
| Oggi h: 08:53 | Sereno | 21 | 11 | 52 | 1012 | 10 | N 0 | |
| Oggi h: 07:53 | Sereno | 19 | 11 | 59 | 1011 | 10 | O/NO 7.4 | |
| Oggi h: 06:53 | Sereno | 14 | 12 | 87 | 1011 | 10 | N 0 | |
| Oggi h: 05:53 | Sereno | 16 | 12 | 77 | 1010 | 10 | N 0 | |
| Oggi h: 04:53 | Sereno | 18 | 11 | 63 | 1010 | 10 | O 7.4 | |
| Oggi h: 03:53 | Sereno | 17 | 11 | 67 | 1010 | 10 | N 0 | |
| Oggi h: 02:53 | Sereno | 20 | 9 | 49 | 1010 | 10 | NO 16.7 | |
| Oggi h: 01:53 | Sereno | 21 | 8 | 43 | 1010 | 10 | NO 16.7 | |
| Oggi h: 00:53 | Sereno | 22 | 8 | 40 | 1010 | 10 | NO 16.7 | |
| Ieri h: 23:53 | Sereno | 23 | 7 | 35 | 1010 | 10 | NO 16.7 | |
| Ieri h: 22:53 | Sereno | 26 | 7 | 29 | 1009 | 10 | NO 18.5 | |
| Ieri h: 21:53 | Sereno | 27 | 8 | 30 | 1009 | 10 | NO 16.7 | |
| Ieri h: 20:53 | Sereno | 29 | 9 | 28 | 1009 | 10 | NO 18.5 | |
| Ieri h: 19:53 | Sereno | 27 | 13 | 42 | 1008 | 10 | N 0 | |
| Ieri h: 18:53 | Sereno | 33 | 11 | 26 | 1008 | 10 | N 5.5 | |
| Ieri h: 17:53 | Sereno | 34 | 9 | 21 | 1008 | 10 | N 9.3 | |
| Ieri h: 16:53 | Sereno | 34 | 9 | 21 | 1009 | 10 | N 7.4 | |
| Ieri h: 15:53 | Sereno | 34 | 7 | 18 | 1009 | 10 | N 0 | |
| Ieri h: 14:53 | Sereno | 33 | 7 | 19 | 1010 | 10 | N 5.5 | |



